sensor_id;sensor_type;location;lat;lon;timestamp;P1;durP1;ratioP1;P2;durP2;ratioP2
68803;SDS011;55787;52.678;13.314;2024-02-26T00:00:29;14.03;;;5.17;;
68803;SDS011;55787;52.678;13.314;2024-02-26T00:02:56;14.32;;;5.28;;
68803;SDS011;55787;52.678;13.314;2024-02-26T00:05:23;16.25;;;5.80;;
68803;SDS011;55787;52.678;13.314;2024-02-26T00:07:49;16.15;;;5.65;;
68803;SDS011;55787;52.678;13.314;2024-02-26T00:10:16;16.23;;;5.03;;
68803;SDS011;55787;52.678;13.314;2024-02-26T00:12:42;14.93;;;5.43;;
68803;SDS011;55787;52.678;13.314;2024-02-26T00:15:09;13.50;;;4.80;;
68803;SDS011;55787;52.678;13.314;2024-02-26T00:17:36;13.50;;;4.95;;
68803;SDS011;55787;52.678;13.314;2024-02-26T00:20:04;13.45;;;4.78;;
68803;SDS011;55787;52.678;13.314;2024-02-26T00:22:34;15.00;;;5.13;;
68803;SDS011;55787;52.678;13.314;2024-02-26T00:25:02;12.97;;;5.03;;
68803;SDS011;55787;52.678;13.314;2024-02-26T00:27:29;13.57;;;4.57;;
68803;SDS011;55787;52.678;13.314;2024-02-26T00:29:56;14.63;;;5.00;;
68803;SDS011;55787;52.678;13.314;2024-02-26T00:32:23;14.10;;;5.15;;
68803;SDS011;55787;52.678;13.314;2024-02-26T00:34:49;13.50;;;4.90;;
68803;SDS011;55787;52.678;13.314;2024-02-26T00:37:16;14.00;;;5.13;;
68803;SDS011;55787;52.678;13.314;2024-02-26T00:39:43;16.48;;;6.68;;
68803;SDS011;55787;52.678;13.314;2024-02-26T00:42:11;17.17;;;6.65;;
68803;SDS011;55787;52.678;13.314;2024-02-26T00:44:37;17.15;;;6.63;;
68803;SDS011;55787;52.678;13.314;2024-02-26T00:47:04;15.45;;;5.53;;
68803;SDS011;55787;52.678;13.314;2024-02-26T00:49:31;16.57;;;5.90;;
68803;SDS011;55787;52.678;13.314;2024-02-26T00:51:58;13.63;;;5.10;;
68803;SDS011;55787;52.678;13.314;2024-02-26T00:54:24;15.10;;;5.32;;
68803;SDS011;55787;52.678;13.314;2024-02-26T00:56:51;14.35;;;5.30;;
68803;SDS011;55787;52.678;13.314;2024-02-26T00:59:17;15.70;;;5.22;;
68803;SDS011;55787;52.678;13.314;2024-02-26T01:01:44;14.30;;;4.97;;
68803;SDS011;55787;52.678;13.314;2024-02-26T01:04:11;14.68;;;4.90;;
68803;SDS011;55787;52.678;13.314;2024-02-26T01:06:38;14.60;;;4.75;;
68803;SDS011;55787;52.678;13.314;2024-02-26T01:09:05;14.43;;;5.20;;
68803;SDS011;55787;52.678;13.314;2024-02-26T01:11:32;14.98;;;4.97;;
68803;SDS011;55787;52.678;13.314;2024-02-26T01:13:59;12.57;;;5.00;;
68803;SDS011;55787;52.678;13.314;2024-02-26T01:16:25;15.50;;;5.13;;
68803;SDS011;55787;52.678;13.314;2024-02-26T01:18:54;14.07;;;5.28;;
68803;SDS011;55787;52.678;13.314;2024-02-26T01:21:21;14.07;;;4.70;;
68803;SDS011;55787;52.678;13.314;2024-02-26T01:23:48;14.52;;;5.18;;
68803;SDS011;55787;52.678;13.314;2024-02-26T01:26:14;15.77;;;5.20;;
68803;SDS011;55787;52.678;13.314;2024-02-26T01:28:41;17.27;;;5.13;;
68803;SDS011;55787;52.678;13.314;2024-02-26T01:31:09;15.93;;;5.55;;
68803;SDS011;55787;52.678;13.314;2024-02-26T01:33:36;15.30;;;5.30;;
68803;SDS011;55787;52.678;13.314;2024-02-26T01:36:03;14.48;;;5.20;;
68803;SDS011;55787;52.678;13.314;2024-02-26T01:38:30;14.40;;;5.00;;
68803;SDS011;55787;52.678;13.314;2024-02-26T01:40:56;15.15;;;5.32;;
68803;SDS011;55787;52.678;13.314;2024-02-26T01:43:23;15.98;;;5.70;;
68803;SDS011;55787;52.678;13.314;2024-02-26T01:45:49;14.30;;;5.13;;
68803;SDS011;55787;52.678;13.314;2024-02-26T01:48:16;15.57;;;5.13;;
68803;SDS011;55787;52.678;13.314;2024-02-26T01:50:43;13.67;;;5.33;;
68803;SDS011;55787;52.678;13.314;2024-02-26T01:53:10;15.50;;;5.10;;
68803;SDS011;55787;52.678;13.314;2024-02-26T01:55:37;15.07;;;5.53;;
68803;SDS011;55787;52.678;13.314;2024-02-26T01:58:03;16.00;;;5.50;;
68803;SDS011;55787;52.678;13.314;2024-02-26T02:00:31;15.57;;;5.57;;
68803;SDS011;55787;52.678;13.314;2024-02-26T02:02:58;14.60;;;4.93;;
68803;SDS011;55787;52.678;13.314;2024-02-26T02:05:25;16.25;;;5.70;;
68803;SDS011;55787;52.678;13.314;2024-02-26T02:07:52;14.35;;;5.15;;
68803;SDS011;55787;52.678;13.314;2024-02-26T02:10:20;14.95;;;5.32;;
68803;SDS011;55787;52.678;13.314;2024-02-26T02:12:51;14.18;;;4.75;;
68803;SDS011;55787;52.678;13.314;2024-02-26T02:15:18;13.67;;;4.70;;
68803;SDS011;55787;52.678;13.314;2024-02-26T02:17:46;15.73;;;5.03;;
68803;SDS011;55787;52.678;13.314;2024-02-26T02:20:16;15.07;;;5.38;;
68803;SDS011;55787;52.678;13.314;2024-02-26T02:22:44;15.13;;;5.10;;
68803;SDS011;55787;52.678;13.314;2024-02-26T02:25:12;14.32;;;5.25;;
68803;SDS011;55787;52.678;13.314;2024-02-26T02:27:39;11.97;;;4.30;;
68803;SDS011;55787;52.678;13.314;2024-02-26T02:30:07;13.82;;;4.90;;
68803;SDS011;55787;52.678;13.314;2024-02-26T02:32:35;12.82;;;5.00;;
68803;SDS011;55787;52.678;13.314;2024-02-26T02:35:06;14.10;;;5.18;;
68803;SDS011;55787;52.678;13.314;2024-02-26T02:37:33;12.75;;;4.57;;
68803;SDS011;55787;52.678;13.314;2024-02-26T02:40:00;13.73;;;5.10;;
68803;SDS011;55787;52.678;13.314;2024-02-26T02:42:26;15.90;;;5.25;;
68803;SDS011;55787;52.678;13.314;2024-02-26T02:44:53;14.13;;;4.78;;
68803;SDS011;55787;52.678;13.314;2024-02-26T02:47:20;15.00;;;5.25;;
68803;SDS011;55787;52.678;13.314;2024-02-26T02:49:46;17.10;;;5.15;;
68803;SDS011;55787;52.678;13.314;2024-02-26T02:52:13;15.50;;;5.27;;
68803;SDS011;55787;52.678;13.314;2024-02-26T02:54:40;14.90;;;4.72;;
68803;SDS011;55787;52.678;13.314;2024-02-26T02:57:08;13.38;;;4.68;;
68803;SDS011;55787;52.678;13.314;2024-02-26T02:59:37;13.52;;;4.93;;
68803;SDS011;55787;52.678;13.314;2024-02-26T03:02:04;13.70;;;5.18;;
68803;SDS011;55787;52.678;13.314;2024-02-26T03:04:31;16.07;;;4.67;;
68803;SDS011;55787;52.678;13.314;2024-02-26T03:06:58;11.55;;;4.20;;
68803;SDS011;55787;52.678;13.314;2024-02-26T03:09:25;13.57;;;4.82;;
68803;SDS011;55787;52.678;13.314;2024-02-26T03:11:51;12.65;;;4.60;;
68803;SDS011;55787;52.678;13.314;2024-02-26T03:14:18;14.27;;;4.75;;
68803;SDS011;55787;52.678;13.314;2024-02-26T03:16:45;12.17;;;4.17;;
68803;SDS011;55787;52.678;13.314;2024-02-26T03:19:14;14.18;;;4.55;;
68803;SDS011;55787;52.678;13.314;2024-02-26T03:21:41;13.90;;;4.60;;
68803;SDS011;55787;52.678;13.314;2024-02-26T03:24:08;13.73;;;4.72;;
68803;SDS011;55787;52.678;13.314;2024-02-26T03:26:38;12.57;;;4.40;;
68803;SDS011;55787;52.678;13.314;2024-02-26T03:29:05;12.30;;;4.50;;
68803;SDS011;55787;52.678;13.314;2024-02-26T03:31:32;16.30;;;4.75;;
68803;SDS011;55787;52.678;13.314;2024-02-26T03:33:58;12.95;;;4.70;;
68803;SDS011;55787;52.678;13.314;2024-02-26T03:36:25;12.18;;;3.97;;
68803;SDS011;55787;52.678;13.314;2024-02-26T03:38:52;15.07;;;5.30;;
68803;SDS011;55787;52.678;13.314;2024-02-26T03:41:19;12.77;;;4.53;;
68803;SDS011;55787;52.678;13.314;2024-02-26T03:43:45;12.88;;;4.65;;
68803;SDS011;55787;52.678;13.314;2024-02-26T03:46:12;12.65;;;4.50;;
68803;SDS011;55787;52.678;13.314;2024-02-26T03:48:40;12.77;;;4.50;;
68803;SDS011;55787;52.678;13.314;2024-02-26T03:51:10;12.13;;;4.10;;
68803;SDS011;55787;52.678;13.314;2024-02-26T03:53:37;12.10;;;4.30;;
68803;SDS011;55787;52.678;13.314;2024-02-26T03:56:04;12.63;;;4.10;;
68803;SDS011;55787;52.678;13.314;2024-02-26T03:58:32;12.52;;;4.60;;
68803;SDS011;55787;52.678;13.314;2024-02-26T04:00:59;11.45;;;4.10;;
68803;SDS011;55787;52.678;13.314;2024-02-26T04:03:26;10.85;;;3.95;;
68803;SDS011;55787;52.678;13.314;2024-02-26T04:05:53;11.80;;;4.20;;
68803;SDS011;55787;52.678;13.314;2024-02-26T04:08:20;11.43;;;4.07;;
68803;SDS011;55787;52.678;13.314;2024-02-26T04:10:47;11.82;;;4.25;;
68803;SDS011;55787;52.678;13.314;2024-02-26T04:13:13;11.48;;;3.80;;
68803;SDS011;55787;52.678;13.314;2024-02-26T04:15:41;10.88;;;4.28;;
68803;SDS011;55787;52.678;13.314;2024-02-26T04:18:07;13.37;;;4.13;;
68803;SDS011;55787;52.678;13.314;2024-02-26T04:20:34;13.18;;;3.85;;
68803;SDS011;55787;52.678;13.314;2024-02-26T04:23:01;12.32;;;4.22;;
68803;SDS011;55787;52.678;13.314;2024-02-26T04:25:29;11.77;;;4.18;;
68803;SDS011;55787;52.678;13.314;2024-02-26T04:27:55;11.13;;;3.45;;
68803;SDS011;55787;52.678;13.314;2024-02-26T04:30:22;12.40;;;3.90;;
68803;SDS011;55787;52.678;13.314;2024-02-26T04:32:49;13.05;;;4.55;;
68803;SDS011;55787;52.678;13.314;2024-02-26T04:35:16;14.65;;;4.40;;
68803;SDS011;55787;52.678;13.314;2024-02-26T04:37:42;14.57;;;3.97;;
68803;SDS011;55787;52.678;13.314;2024-02-26T04:40:09;13.10;;;4.10;;
68803;SDS011;55787;52.678;13.314;2024-02-26T04:42:36;12.27;;;4.10;;
68803;SDS011;55787;52.678;13.314;2024-02-26T04:45:02;11.40;;;4.07;;
68803;SDS011;55787;52.678;13.314;2024-02-26T04:47:29;11.35;;;4.10;;
68803;SDS011;55787;52.678;13.314;2024-02-26T04:49:56;11.68;;;3.53;;
68803;SDS011;55787;52.678;13.314;2024-02-26T04:52:23;12.20;;;3.72;;
68803;SDS011;55787;52.678;13.314;2024-02-26T04:54:50;12.17;;;3.87;;
68803;SDS011;55787;52.678;13.314;2024-02-26T04:57:16;14.38;;;4.57;;
68803;SDS011;55787;52.678;13.314;2024-02-26T04:59:45;11.00;;;3.58;;
68803;SDS011;55787;52.678;13.314;2024-02-26T05:02:12;11.80;;;4.03;;
68803;SDS011;55787;52.678;13.314;2024-02-26T05:04:39;12.82;;;4.15;;
68803;SDS011;55787;52.678;13.314;2024-02-26T05:07:06;15.20;;;4.50;;
68803;SDS011;55787;52.678;13.314;2024-02-26T05:09:33;12.63;;;3.92;;
68803;SDS011;55787;52.678;13.314;2024-02-26T05:11:59;12.40;;;3.80;;
68803;SDS011;55787;52.678;13.314;2024-02-26T05:14:26;12.02;;;4.00;;
68803;SDS011;55787;52.678;13.314;2024-02-26T05:16:53;13.38;;;4.28;;
68803;SDS011;55787;52.678;13.314;2024-02-26T05:19:19;13.47;;;4.73;;
68803;SDS011;55787;52.678;13.314;2024-02-26T05:21:46;11.82;;;4.38;;
68803;SDS011;55787;52.678;13.314;2024-02-26T05:24:15;13.85;;;4.68;;
68803;SDS011;55787;52.678;13.314;2024-02-26T05:26:44;11.50;;;4.28;;
68803;SDS011;55787;52.678;13.314;2024-02-26T05:29:11;12.27;;;4.45;;
68803;SDS011;55787;52.678;13.314;2024-02-26T05:31:38;13.83;;;4.50;;
68803;SDS011;55787;52.678;13.314;2024-02-26T05:34:04;14.90;;;4.90;;
68803;SDS011;55787;52.678;13.314;2024-02-26T05:36:31;14.10;;;4.70;;
68803;SDS011;55787;52.678;13.314;2024-02-26T05:39:00;13.50;;;4.95;;
68803;SDS011;55787;52.678;13.314;2024-02-26T05:41:27;17.17;;;5.30;;
68803;SDS011;55787;52.678;13.314;2024-02-26T05:43:54;15.30;;;4.73;;
68803;SDS011;55787;52.678;13.314;2024-02-26T05:46:21;14.73;;;4.88;;
68803;SDS011;55787;52.678;13.314;2024-02-26T05:48:49;12.85;;;4.60;;
68803;SDS011;55787;52.678;13.314;2024-02-26T05:51:18;12.57;;;4.20;;
68803;SDS011;55787;52.678;13.314;2024-02-26T05:53:45;13.13;;;4.43;;
68803;SDS011;55787;52.678;13.314;2024-02-26T05:56:13;14.50;;;4.67;;
68803;SDS011;55787;52.678;13.314;2024-02-26T05:58:40;14.77;;;4.57;;
68803;SDS011;55787;52.678;13.314;2024-02-26T06:01:06;13.07;;;4.60;;
68803;SDS011;55787;52.678;13.314;2024-02-26T06:03:33;13.73;;;4.72;;
68803;SDS011;55787;52.678;13.314;2024-02-26T06:06:00;15.05;;;4.55;;
68803;SDS011;55787;52.678;13.314;2024-02-26T06:08:26;13.20;;;4.70;;
68803;SDS011;55787;52.678;13.314;2024-02-26T06:10:53;13.05;;;4.50;;
68803;SDS011;55787;52.678;13.314;2024-02-26T06:13:20;14.48;;;4.75;;
68803;SDS011;55787;52.678;13.314;2024-02-26T06:15:47;14.25;;;4.90;;
68803;SDS011;55787;52.678;13.314;2024-02-26T06:18:13;12.27;;;4.45;;
68803;SDS011;55787;52.678;13.314;2024-02-26T06:20:40;16.03;;;4.87;;
68803;SDS011;55787;52.678;13.314;2024-02-26T06:23:07;16.23;;;4.35;;
68803;SDS011;55787;52.678;13.314;2024-02-26T06:25:33;14.38;;;5.70;;
68803;SDS011;55787;52.678;13.314;2024-02-26T06:28:00;14.80;;;4.95;;
68803;SDS011;55787;52.678;13.314;2024-02-26T06:30:27;15.20;;;5.05;;
68803;SDS011;55787;52.678;13.314;2024-02-26T06:32:57;17.37;;;5.53;;
68803;SDS011;55787;52.678;13.314;2024-02-26T06:35:24;18.33;;;5.38;;
68803;SDS011;55787;52.678;13.314;2024-02-26T06:37:51;17.67;;;5.72;;
68803;SDS011;55787;52.678;13.314;2024-02-26T06:40:19;16.48;;;5.75;;
68803;SDS011;55787;52.678;13.314;2024-02-26T06:42:46;16.25;;;5.45;;
68803;SDS011;55787;52.678;13.314;2024-02-26T06:45:15;19.37;;;5.83;;
68803;SDS011;55787;52.678;13.314;2024-02-26T06:47:41;15.55;;;5.53;;
68803;SDS011;55787;52.678;13.314;2024-02-26T06:50:11;15.93;;;5.75;;
68803;SDS011;55787;52.678;13.314;2024-02-26T06:52:38;17.52;;;5.85;;
68803;SDS011;55787;52.678;13.314;2024-02-26T06:55:05;15.82;;;5.35;;
68803;SDS011;55787;52.678;13.314;2024-02-26T06:57:34;18.53;;;6.40;;
68803;SDS011;55787;52.678;13.314;2024-02-26T07:00:01;19.90;;;6.85;;
68803;SDS011;55787;52.678;13.314;2024-02-26T07:02:30;17.05;;;6.60;;
68803;SDS011;55787;52.678;13.314;2024-02-26T07:04:57;17.20;;;5.90;;
68803;SDS011;55787;52.678;13.314;2024-02-26T07:07:24;16.77;;;5.70;;
68803;SDS011;55787;52.678;13.314;2024-02-26T07:09:51;17.43;;;5.73;;
68803;SDS011;55787;52.678;13.314;2024-02-26T07:12:18;15.50;;;4.97;;
68803;SDS011;55787;52.678;13.314;2024-02-26T07:14:47;16.23;;;5.45;;
68803;SDS011;55787;52.678;13.314;2024-02-26T07:17:15;16.55;;;5.88;;
68803;SDS011;55787;52.678;13.314;2024-02-26T07:19:42;17.92;;;6.35;;
68803;SDS011;55787;52.678;13.314;2024-02-26T07:22:09;16.63;;;5.77;;
68803;SDS011;55787;52.678;13.314;2024-02-26T07:24:36;17.38;;;6.18;;
68803;SDS011;55787;52.678;13.314;2024-02-26T07:27:03;15.15;;;6.03;;
68803;SDS011;55787;52.678;13.314;2024-02-26T07:29:30;17.77;;;5.93;;
68803;SDS011;55787;52.678;13.314;2024-02-26T07:31:56;16.40;;;6.40;;
68803;SDS011;55787;52.678;13.314;2024-02-26T07:34:24;16.53;;;6.03;;
68803;SDS011;55787;52.678;13.314;2024-02-26T07:36:56;17.27;;;5.78;;
68803;SDS011;55787;52.678;13.314;2024-02-26T07:39:22;15.43;;;6.05;;
68803;SDS011;55787;52.678;13.314;2024-02-26T07:41:49;15.00;;;6.28;;
68803;SDS011;55787;52.678;13.314;2024-02-26T07:44:19;15.27;;;5.88;;
68803;SDS011;55787;52.678;13.314;2024-02-26T07:46:46;19.73;;;7.47;;
68803;SDS011;55787;52.678;13.314;2024-02-26T07:49:13;17.70;;;6.78;;
68803;SDS011;55787;52.678;13.314;2024-02-26T07:51:40;17.33;;;7.20;;
68803;SDS011;55787;52.678;13.314;2024-02-26T07:54:07;13.98;;;5.95;;
68803;SDS011;55787;52.678;13.314;2024-02-26T07:56:34;16.70;;;6.70;;
68803;SDS011;55787;52.678;13.314;2024-02-26T07:59:00;15.80;;;6.10;;
68803;SDS011;55787;52.678;13.314;2024-02-26T08:01:27;15.85;;;6.18;;
68803;SDS011;55787;52.678;13.314;2024-02-26T08:03:53;15.25;;;6.18;;
68803;SDS011;55787;52.678;13.314;2024-02-26T08:06:20;15.10;;;6.03;;
68803;SDS011;55787;52.678;13.314;2024-02-26T08:08:47;18.75;;;6.63;;
68803;SDS011;55787;52.678;13.314;2024-02-26T08:11:14;17.43;;;6.20;;
68803;SDS011;55787;52.678;13.314;2024-02-26T08:13:44;15.68;;;5.97;;
68803;SDS011;55787;52.678;13.314;2024-02-26T08:16:11;15.88;;;6.40;;
68803;SDS011;55787;52.678;13.314;2024-02-26T08:18:38;15.15;;;6.10;;
68803;SDS011;55787;52.678;13.314;2024-02-26T08:21:05;15.02;;;6.53;;
68803;SDS011;55787;52.678;13.314;2024-02-26T08:23:32;15.77;;;6.40;;
68803;SDS011;55787;52.678;13.314;2024-02-26T08:25:58;17.27;;;6.13;;
68803;SDS011;55787;52.678;13.314;2024-02-26T08:28:25;16.38;;;7.03;;
68803;SDS011;55787;52.678;13.314;2024-02-26T08:30:51;16.95;;;6.30;;
68803;SDS011;55787;52.678;13.314;2024-02-26T08:33:18;15.23;;;6.13;;
68803;SDS011;55787;52.678;13.314;2024-02-26T08:35:45;14.23;;;5.90;;
68803;SDS011;55787;52.678;13.314;2024-02-26T08:38:11;16.33;;;6.63;;
68803;SDS011;55787;52.678;13.314;2024-02-26T08:40:38;16.85;;;6.75;;
68803;SDS011;55787;52.678;13.314;2024-02-26T08:43:05;17.10;;;6.80;;
68803;SDS011;55787;52.678;13.314;2024-02-26T08:45:31;16.17;;;6.35;;
68803;SDS011;55787;52.678;13.314;2024-02-26T08:47:58;14.10;;;6.23;;
68803;SDS011;55787;52.678;13.314;2024-02-26T08:50:25;14.60;;;6.25;;
68803;SDS011;55787;52.678;13.314;2024-02-26T08:52:53;16.48;;;6.97;;
68803;SDS011;55787;52.678;13.314;2024-02-26T08:55:19;15.30;;;6.35;;
68803;SDS011;55787;52.678;13.314;2024-02-26T08:57:46;15.00;;;6.45;;
68803;SDS011;55787;52.678;13.314;2024-02-26T09:00:14;15.57;;;6.67;;
68803;SDS011;55787;52.678;13.314;2024-02-26T09:02:42;18.58;;;6.95;;
68803;SDS011;55787;52.678;13.314;2024-02-26T09:05:11;16.55;;;7.07;;
68803;SDS011;55787;52.678;13.314;2024-02-26T09:07:37;16.33;;;7.32;;
68803;SDS011;55787;52.678;13.314;2024-02-26T09:10:05;17.77;;;6.43;;
68803;SDS011;55787;52.678;13.314;2024-02-26T09:12:32;15.17;;;6.37;;
68803;SDS011;55787;52.678;13.314;2024-02-26T09:14:58;16.13;;;6.63;;
68803;SDS011;55787;52.678;13.314;2024-02-26T09:17:25;15.48;;;6.68;;
68803;SDS011;55787;52.678;13.314;2024-02-26T09:19:52;15.68;;;7.13;;
68803;SDS011;55787;52.678;13.314;2024-02-26T09:22:18;15.82;;;6.43;;
68803;SDS011;55787;52.678;13.314;2024-02-26T09:24:45;17.43;;;7.97;;
68803;SDS011;55787;52.678;13.314;2024-02-26T09:27:12;15.07;;;6.78;;
68803;SDS011;55787;52.678;13.314;2024-02-26T09:29:38;16.27;;;7.05;;
68803;SDS011;55787;52.678;13.314;2024-02-26T09:32:05;14.90;;;6.80;;
68803;SDS011;55787;52.678;13.314;2024-02-26T09:34:32;14.35;;;6.43;;
68803;SDS011;55787;52.678;13.314;2024-02-26T09:37:00;14.77;;;6.63;;
68803;SDS011;55787;52.678;13.314;2024-02-26T09:39:40;15.23;;;6.50;;
68803;SDS011;55787;52.678;13.314;2024-02-26T09:42:07;13.90;;;6.55;;
68803;SDS011;55787;52.678;13.314;2024-02-26T09:44:38;15.27;;;6.80;;
68803;SDS011;55787;52.678;13.314;2024-02-26T09:47:08;13.95;;;6.95;;
68803;SDS011;55787;52.678;13.314;2024-02-26T09:49:36;15.03;;;7.37;;
68803;SDS011;55787;52.678;13.314;2024-02-26T09:52:04;14.48;;;7.15;;
68803;SDS011;55787;52.678;13.314;2024-02-26T09:54:31;14.30;;;7.18;;
68803;SDS011;55787;52.678;13.314;2024-02-26T09:56:59;15.32;;;7.00;;
68803;SDS011;55787;52.678;13.314;2024-02-26T09:59:33;13.57;;;6.80;;
68803;SDS011;55787;52.678;13.314;2024-02-26T10:02:11;13.93;;;7.23;;
68803;SDS011;55787;52.678;13.314;2024-02-26T10:04:39;14.27;;;7.22;;
68803;SDS011;55787;52.678;13.314;2024-02-26T10:07:12;13.32;;;7.40;;
68803;SDS011;55787;52.678;13.314;2024-02-26T10:09:39;13.73;;;7.22;;
68803;SDS011;55787;52.678;13.314;2024-02-26T10:12:07;14.45;;;7.35;;
68803;SDS011;55787;52.678;13.314;2024-02-26T10:14:36;12.57;;;6.93;;
68803;SDS011;55787;52.678;13.314;2024-02-26T10:17:03;13.65;;;6.88;;
68803;SDS011;55787;52.678;13.314;2024-02-26T10:19:35;14.25;;;6.75;;
68803;SDS011;55787;52.678;13.314;2024-02-26T10:22:04;12.35;;;6.38;;
68803;SDS011;55787;52.678;13.314;2024-02-26T10:24:31;12.07;;;6.68;;
68803;SDS011;55787;52.678;13.314;2024-02-26T10:26:58;13.00;;;6.37;;
68803;SDS011;55787;52.678;13.314;2024-02-26T10:29:25;11.88;;;6.32;;
68803;SDS011;55787;52.678;13.314;2024-02-26T10:31:52;12.32;;;6.13;;
68803;SDS011;55787;52.678;13.314;2024-02-26T10:34:18;13.23;;;6.20;;
68803;SDS011;55787;52.678;13.314;2024-02-26T10:36:46;12.85;;;6.50;;
68803;SDS011;55787;52.678;13.314;2024-02-26T10:39:19;13.43;;;6.37;;
68803;SDS011;55787;52.678;13.314;2024-02-26T10:41:47;12.13;;;5.80;;
68803;SDS011;55787;52.678;13.314;2024-02-26T10:44:14;12.35;;;5.90;;
68803;SDS011;55787;52.678;13.314;2024-02-26T10:46:44;11.23;;;5.55;;
68803;SDS011;55787;52.678;13.314;2024-02-26T10:49:14;11.82;;;5.55;;
68803;SDS011;55787;52.678;13.314;2024-02-26T10:51:45;11.90;;;5.80;;
68803;SDS011;55787;52.678;13.314;2024-02-26T10:54:16;12.07;;;5.80;;
68803;SDS011;55787;52.678;13.314;2024-02-26T10:56:44;12.70;;;6.10;;
68803;SDS011;55787;52.678;13.314;2024-02-26T10:59:13;12.57;;;6.32;;
68803;SDS011;55787;52.678;13.314;2024-02-26T11:01:41;13.60;;;6.00;;
68803;SDS011;55787;52.678;13.314;2024-02-26T11:04:13;11.90;;;5.50;;
68803;SDS011;55787;52.678;13.314;2024-02-26T11:06:42;13.02;;;5.93;;
68803;SDS011;55787;52.678;13.314;2024-02-26T11:09:11;11.48;;;5.72;;
68803;SDS011;55787;52.678;13.314;2024-02-26T11:11:42;12.27;;;5.90;;
68803;SDS011;55787;52.678;13.314;2024-02-26T11:14:09;12.00;;;5.80;;
68803;SDS011;55787;52.678;13.314;2024-02-26T11:16:36;13.17;;;6.07;;
68803;SDS011;55787;52.678;13.314;2024-02-26T11:19:06;12.80;;;5.70;;
68803;SDS011;55787;52.678;13.314;2024-02-26T11:21:36;14.20;;;6.50;;
68803;SDS011;55787;52.678;13.314;2024-02-26T11:24:08;13.23;;;6.07;;
68803;SDS011;55787;52.678;13.314;2024-02-26T11:27:01;13.45;;;6.40;;
68803;SDS011;55787;52.678;13.314;2024-02-26T11:29:49;14.07;;;6.23;;
68803;SDS011;55787;52.678;13.314;2024-02-26T11:32:18;12.55;;;5.72;;
68803;SDS011;55787;52.678;13.314;2024-02-26T11:34:45;13.85;;;6.32;;
68803;SDS011;55787;52.678;13.314;2024-02-26T11:37:15;12.68;;;6.30;;
68803;SDS011;55787;52.678;13.314;2024-02-26T11:39:43;13.80;;;6.00;;
68803;SDS011;55787;52.678;13.314;2024-02-26T11:42:14;12.87;;;5.80;;
68803;SDS011;55787;52.678;13.314;2024-02-26T11:44:42;12.45;;;5.50;;
68803;SDS011;55787;52.678;13.314;2024-02-26T11:47:12;14.27;;;6.05;;
68803;SDS011;55787;52.678;13.314;2024-02-26T11:49:44;13.23;;;5.82;;
68803;SDS011;55787;52.678;13.314;2024-02-26T11:52:11;11.00;;;5.15;;
68803;SDS011;55787;52.678;13.314;2024-02-26T11:54:46;11.90;;;5.17;;
68803;SDS011;55787;52.678;13.314;2024-02-26T12:02:55;11.45;;;4.80;;
68803;SDS011;55787;52.678;13.314;2024-02-26T12:05:30;12.00;;;5.30;;
68803;SDS011;55787;52.678;13.314;2024-02-26T12:08:00;11.83;;;5.03;;
68803;SDS011;55787;52.678;13.314;2024-02-26T12:10:34;11.85;;;5.00;;
68803;SDS011;55787;52.678;13.314;2024-02-26T12:13:11;12.73;;;5.20;;
68803;SDS011;55787;52.678;13.314;2024-02-26T12:18:18;10.65;;;4.50;;
68803;SDS011;55787;52.678;13.314;2024-02-26T12:20:45;10.07;;;3.90;;
68803;SDS011;55787;52.678;13.314;2024-02-26T12:23:16;10.68;;;3.95;;
68803;SDS011;55787;52.678;13.314;2024-02-26T12:25:46;10.65;;;4.10;;
68803;SDS011;55787;52.678;13.314;2024-02-26T12:28:14;10.55;;;4.00;;
68803;SDS011;55787;52.678;13.314;2024-02-26T12:30:41;9.05;;;3.40;;
68803;SDS011;55787;52.678;13.314;2024-02-26T12:33:07;10.63;;;3.03;;
68803;SDS011;55787;52.678;13.314;2024-02-26T12:35:34;9.52;;;3.60;;
68803;SDS011;55787;52.678;13.314;2024-02-26T12:38:01;9.45;;;3.45;;
68803;SDS011;55787;52.678;13.314;2024-02-26T12:40:30;8.50;;;3.50;;
68803;SDS011;55787;52.678;13.314;2024-02-26T12:42:57;9.90;;;3.70;;
68803;SDS011;55787;52.678;13.314;2024-02-26T12:45:24;8.97;;;3.30;;
68803;SDS011;55787;52.678;13.314;2024-02-26T12:47:52;9.18;;;3.30;;
68803;SDS011;55787;52.678;13.314;2024-02-26T12:50:19;9.70;;;3.80;;
68803;SDS011;55787;52.678;13.314;2024-02-26T12:52:46;9.13;;;3.00;;
68803;SDS011;55787;52.678;13.314;2024-02-26T12:55:17;9.10;;;3.50;;
68803;SDS011;55787;52.678;13.314;2024-02-26T12:57:46;8.67;;;3.17;;
68803;SDS011;55787;52.678;13.314;2024-02-26T13:00:16;8.70;;;3.42;;
68803;SDS011;55787;52.678;13.314;2024-02-26T13:02:44;9.00;;;3.13;;
68803;SDS011;55787;52.678;13.314;2024-02-26T13:05:13;9.10;;;3.30;;
68803;SDS011;55787;52.678;13.314;2024-02-26T13:07:44;9.25;;;3.22;;
68803;SDS011;55787;52.678;13.314;2024-02-26T13:10:13;9.80;;;3.30;;
68803;SDS011;55787;52.678;13.314;2024-02-26T13:12:43;8.27;;;2.80;;
68803;SDS011;55787;52.678;13.314;2024-02-26T13:15:15;9.40;;;3.10;;
68803;SDS011;55787;52.678;13.314;2024-02-26T13:17:46;8.75;;;3.10;;
68803;SDS011;55787;52.678;13.314;2024-02-26T13:20:25;8.40;;;2.83;;
68803;SDS011;55787;52.678;13.314;2024-02-26T13:22:59;9.73;;;2.67;;
68803;SDS011;55787;52.678;13.314;2024-02-26T13:25:27;8.55;;;2.70;;
68803;SDS011;55787;52.678;13.314;2024-02-26T13:28:04;10.30;;;2.60;;
68803;SDS011;55787;52.678;13.314;2024-02-26T13:30:57;8.13;;;2.67;;
68803;SDS011;55787;52.678;13.314;2024-02-26T13:33:24;8.55;;;2.50;;
68803;SDS011;55787;52.678;13.314;2024-02-26T13:35:52;8.43;;;2.50;;
68803;SDS011;55787;52.678;13.314;2024-02-26T13:38:19;7.55;;;2.45;;
68803;SDS011;55787;52.678;13.314;2024-02-26T13:40:46;8.38;;;2.20;;
68803;SDS011;55787;52.678;13.314;2024-02-26T13:43:13;8.65;;;2.28;;
68803;SDS011;55787;52.678;13.314;2024-02-26T13:45:40;7.93;;;2.00;;
68803;SDS011;55787;52.678;13.314;2024-02-26T13:48:07;8.37;;;2.17;;
68803;SDS011;55787;52.678;13.314;2024-02-26T13:50:38;9.18;;;2.20;;
68803;SDS011;55787;52.678;13.314;2024-02-26T13:53:05;7.00;;;2.03;;
68803;SDS011;55787;52.678;13.314;2024-02-26T13:55:33;6.63;;;1.80;;
68803;SDS011;55787;52.678;13.314;2024-02-26T13:57:59;10.20;;;2.20;;
68803;SDS011;55787;52.678;13.314;2024-02-26T14:00:30;6.90;;;2.17;;
68803;SDS011;55787;52.678;13.314;2024-02-26T14:03:01;7.60;;;1.88;;
68803;SDS011;55787;52.678;13.314;2024-02-26T14:05:29;7.25;;;2.00;;
68803;SDS011;55787;52.678;13.314;2024-02-26T14:07:56;7.32;;;2.15;;
68803;SDS011;55787;52.678;13.314;2024-02-26T14:10:23;8.07;;;2.03;;
68803;SDS011;55787;52.678;13.314;2024-02-26T14:12:50;7.27;;;2.30;;
68803;SDS011;55787;52.678;13.314;2024-02-26T14:15:17;7.88;;;2.42;;
68803;SDS011;55787;52.678;13.314;2024-02-26T14:17:43;8.05;;;2.45;;
68803;SDS011;55787;52.678;13.314;2024-02-26T14:20:11;9.15;;;2.83;;
68803;SDS011;55787;52.678;13.314;2024-02-26T14:22:38;8.95;;;2.80;;
68803;SDS011;55787;52.678;13.314;2024-02-26T14:25:05;7.90;;;2.67;;
68803;SDS011;55787;52.678;13.314;2024-02-26T14:27:31;8.80;;;2.85;;
68803;SDS011;55787;52.678;13.314;2024-02-26T14:29:58;9.75;;;3.20;;
68803;SDS011;55787;52.678;13.314;2024-02-26T14:32:25;9.52;;;2.85;;
68803;SDS011;55787;52.678;13.314;2024-02-26T14:34:52;8.88;;;2.53;;